Time;durP1;ratioP1;P1;durP2;ratioP2;P2;SDS_P1;SDS_P2;PMS_P1;PMS_P2;Temp;Humidity;BMP_temperature;BMP_pressure;BME280_temperature;BME280_humidity;BME280_pressure;Samples;Min_cycle;Max_cycle;Signal;HPM_P1;HPM_P2
2022/05/06 00:00:20;;;;;;;;;;;10.30;99.90;;;;;;5011752;28;19960;-72
2022/05/06 00:02:47;;;;;;;;;;;10.20;99.90;;;;;;5011906;28;19932;-72
2022/05/06 00:05:15;;;;;;;;;;;10.10;99.90;;;;;;5011027;28;19930;-71
2022/05/06 00:07:42;;;;;;;;;;;10.00;99.90;;;;;;5011459;28;19925;-72
2022/05/06 00:10:09;;;;;;;;;;;9.90;99.90;;;;;;5011299;28;20296;-72
2022/05/06 00:12:36;;;;;;;;;;;9.90;99.90;;;;;;5011125;28;19976;-72
2022/05/06 00:15:04;;;;;;;;;;;9.90;99.90;;;;;;5011264;28;19925;-72
2022/05/06 00:17:31;;;;;;;;;;;9.90;99.90;;;;;;5011828;28;19925;-72
2022/05/06 00:19:58;;;;;;;;;;;9.90;99.90;;;;;;5011359;28;19926;-72
2022/05/06 00:22:26;;;;;;;;;;;9.80;99.90;;;;;;5011171;28;19925;-72
2022/05/06 00:24:53;;;;;;;;;;;9.80;99.90;;;;;;5010882;28;19925;-72
2022/05/06 00:27:19;;;;;;;;;;;9.70;99.90;;;;;;5010697;28;19925;-72
2022/05/06 00:29:46;;;;;;;;;;;9.70;99.90;;;;;;5017525;28;19960;-72
2022/05/06 00:32:13;;;;;;;;;;;9.70;99.90;;;;;;5017080;28;19932;-71
2022/05/06 00:34:40;;;;;;;;;;;9.70;99.90;;;;;;5011160;28;19925;-72
2022/05/06 00:37:07;;;;;;;;;;;9.70;99.90;;;;;;5010967;28;20375;-72
2022/05/06 00:39:35;;;;;;;;;;;9.70;99.90;;;;;;5011044;28;19926;-72
2022/05/06 00:42:02;;;;;;;;;;;9.70;99.90;;;;;;5010955;28;19925;-72
2022/05/06 00:44:29;;;;;;;;;;;9.70;99.90;;;;;;5010759;28;19925;-72
2022/05/06 00:46:57;;;;;;;;;;;9.70;99.90;;;;;;5010958;28;19925;-72
2022/05/06 00:49:24;;;;;;;;;;;9.80;99.90;;;;;;5010835;28;19930;-72
2022/05/06 00:51:52;;;;;;;;;;;9.70;99.90;;;;;;5010822;28;20397;-72
2022/05/06 00:54:21;;;;;;;;;;;9.70;99.90;;;;;;5010285;28;19925;-71
2022/05/06 00:56:50;;;;;;;;;;;9.80;99.90;;;;;;5010358;28;19925;-72
2022/05/06 00:59:17;;;;;;;;;;;9.80;99.90;;;;;;5010808;28;19930;-72
2022/05/06 01:01:44;;;;;;;;;;;9.80;99.90;;;;;;5013274;28;19929;-72
2022/05/06 01:04:16;;;;;;;;;;;9.80;99.90;;;;;;5014477;28;19932;-72
2022/05/06 01:06:43;;;;;;;;;;;9.80;99.90;;;;;;5014850;28;20296;-72
2022/05/06 01:09:12;;;;;;;;;;;9.80;99.90;;;;;;5014613;28;19925;-72
2022/05/06 01:11:39;;;;;;;;;;;9.80;99.90;;;;;;5014629;28;20411;-72
2022/05/06 01:14:07;;;;;;;;;;;9.80;99.90;;;;;;5014215;28;20377;-72
2022/05/06 01:16:37;;;;;;;;;;;9.80;99.90;;;;;;5015151;28;19926;-73
2022/05/06 01:19:06;;;;;;;;;;;9.80;99.90;;;;;;5014649;28;19972;-72
2022/05/06 01:21:35;;;;;;;;;;;9.70;99.90;;;;;;5014006;28;20044;-72
2022/05/06 01:24:04;;;;;;;;;;;9.70;99.90;;;;;;5013234;28;19925;-72
2022/05/06 01:26:57;;;;;;;;;;;9.70;99.90;;;;;;5014859;28;20336;-72
2022/05/06 01:29:24;;;;;;;;;;;9.70;99.90;;;;;;5013858;28;19975;-72
2022/05/06 01:31:52;;;;;;;;;;;9.60;99.90;;;;;;5014466;28;19933;-72
2022/05/06 01:34:21;;;;;;;;;;;9.60;99.90;;;;;;5013668;28;19932;-72
2022/05/06 01:36:49;;;;;;;;;;;9.60;99.90;;;;;;5014392;28;19925;-72
2022/05/06 01:39:18;;;;;;;;;;;9.60;99.90;;;;;;5014307;28;19926;-72
2022/05/06 01:41:46;;;;;;;;;;;9.50;99.90;;;;;;5014115;28;19964;-72
2022/05/06 01:44:16;;;;;;;;;;;9.40;99.90;;;;;;5013877;28;20349;-72
2022/05/06 01:46:45;;;;;;;;;;;9.40;99.90;;;;;;5014172;28;20422;-72
2022/05/06 01:49:27;;;;;;;;;;;9.40;99.90;;;;;;5013924;28;19933;-72
2022/05/06 01:51:57;;;;;;;;;;;9.30;99.90;;;;;;5014359;28;19926;-72
2022/05/06 01:54:27;;;;;;;;;;;9.30;99.90;;;;;;5013747;28;19932;-72
2022/05/06 01:56:55;;;;;;;;;;;9.20;99.90;;;;;;5014070;28;19926;-72
2022/05/06 01:59:24;;;;;;;;;;;9.20;99.90;;;;;;5014215;28;19925;-72
2022/05/06 02:01:58;;;;;;;;;;;9.10;99.90;;;;;;5014303;28;19925;-72
2022/05/06 02:07:15;;;;;;;;;;;9.00;99.90;;;;;;5014095;28;19960;-72
2022/05/06 02:09:45;;;;;;;;;;;9.00;99.90;;;;;;5013844;28;19960;-72
2022/05/06 02:12:14;;;;;;;;;;;9.00;99.90;;;;;;5013894;28;20372;-71
2022/05/06 02:15:02;;;;;;;;;;;9.00;99.90;;;;;;5013799;28;19925;-72
2022/05/06 02:17:51;;;;;;;;;;;9.00;99.90;;;;;;5014120;28;19925;-72
2022/05/06 02:20:21;;;;;;;;;;;8.90;99.90;;;;;;5015059;28;19926;-73
2022/05/06 02:23:01;;;;;;;;;;;8.90;99.90;;;;;;5013907;28;19926;-72
2022/05/06 02:25:35;;;;;;;;;;;8.90;99.90;;;;;;5013664;28;19945;-72
2022/05/06 02:28:14;;;;;;;;;;;8.90;99.90;;;;;;5017576;28;20317;-72
2022/05/06 02:33:31;;;;;;;;;;;8.90;99.90;;;;;;5013531;28;19947;-72
2022/05/06 02:36:06;;;;;;;;;;;8.90;99.90;;;;;;5013663;28;20385;-72
2022/05/06 02:38:36;;;;;;;;;;;8.90;99.90;;;;;;5042592;23;19957;-72
2022/05/06 02:41:05;;;;;;;;;;;8.80;99.90;;;;;;5054650;28;19928;-70
2022/05/06 02:43:43;;;;;;;;;;;8.80;99.90;;;;;;5054929;28;19999;-70
2022/05/06 02:46:10;;;;;;;;;;;8.80;99.90;;;;;;5055332;28;19929;-70
2022/05/06 02:48:37;;;;;;;;;;;8.70;99.90;;;;;;5055014;28;19925;-70
2022/05/06 02:51:08;;;;;;;;;;;8.70;99.90;;;;;;5055316;28;19939;-70
2022/05/06 02:53:36;;;;;;;;;;;8.70;99.90;;;;;;5055173;28;19929;-69
2022/05/06 02:56:05;;;;;;;;;;;8.70;99.90;;;;;;5055183;28;19935;-70
2022/05/06 02:58:42;;;;;;;;;;;8.60;99.90;;;;;;5055174;28;20406;-70
2022/05/06 03:01:09;;;;;;;;;;;8.60;99.90;;;;;;5055112;28;20299;-71
2022/05/06 03:03:39;;;;;;;;;;;8.60;99.90;;;;;;5054660;28;19925;-70
2022/05/06 03:06:13;;;;;;;;;;;8.60;99.90;;;;;;5055134;28;20031;-69
2022/05/06 03:08:40;;;;;;;;;;;8.70;99.90;;;;;;5054817;28;19994;-70
2022/05/06 03:11:09;;;;;;;;;;;8.70;99.90;;;;;;5054479;28;19952;-70
2022/05/06 03:13:44;;;;;;;;;;;8.70;99.90;;;;;;5054405;28;20303;-70
2022/05/06 03:16:15;;;;;;;;;;;8.60;99.90;;;;;;5054274;28;19974;-70
2022/05/06 03:18:42;;;;;;;;;;;8.60;99.90;;;;;;5054701;28;19932;-70
2022/05/06 03:21:08;;;;;;;;;;;8.60;99.90;;;;;;5054729;28;19924;-70
2022/05/06 03:23:38;;;;;;;;;;;8.60;99.90;;;;;;5054018;28;19925;-70
2022/05/06 03:26:04;;;;;;;;;;;8.60;99.90;;;;;;5054215;28;19925;-70
2022/05/06 03:28:35;;;;;;;;;;;8.60;99.90;;;;;;5054196;28;20319;-70
2022/05/06 03:31:03;;;;;;;;;;;8.60;99.90;;;;;;5053988;28;19924;-70
2022/05/06 03:33:37;;;;;;;;;;;8.60;99.90;;;;;;5054139;28;19924;-70
2022/05/06 03:36:11;;;;;;;;;;;8.60;99.90;;;;;;5054236;28;19924;-70
2022/05/06 03:38:51;;;;;;;;;;;8.50;99.90;;;;;;5054124;28;19925;-70
2022/05/06 03:41:21;;;;;;;;;;;8.50;99.90;;;;;;5054274;28;19978;-70
2022/05/06 03:43:52;;;;;;;;;;;8.50;99.90;;;;;;5054122;28;19929;-70
2022/05/06 03:46:22;;;;;;;;;;;8.50;99.90;;;;;;5054174;28;19929;-70
2022/05/06 03:48:51;;;;;;;;;;;8.50;99.90;;;;;;5053078;28;19968;-69
2022/05/06 03:51:20;;;;;;;;;;;8.40;99.90;;;;;;5053124;28;19948;-70
2022/05/06 03:53:47;;;;;;;;;;;8.40;99.90;;;;;;5052555;28;19998;-70
2022/05/06 03:56:14;;;;;;;;;;;8.40;99.90;;;;;;5053689;28;20395;-70
2022/05/06 03:58:44;;;;;;;;;;;8.30;99.90;;;;;;5053418;28;19928;-69
2022/05/06 04:01:16;;;;;;;;;;;8.30;99.90;;;;;;5052690;28;20318;-70
2022/05/06 04:03:47;;;;;;;;;;;8.30;99.90;;;;;;5052209;28;20012;-70
2022/05/06 04:06:15;;;;;;;;;;;8.20;99.90;;;;;;5053479;28;19931;-70
2022/05/06 04:08:47;;;;;;;;;;;8.20;99.90;;;;;;5053633;28;19956;-68
2022/05/06 04:11:14;;;;;;;;;;;8.20;99.90;;;;;;5053488;28;20015;-71
2022/05/06 04:13:45;;;;;;;;;;;8.30;99.90;;;;;;5053246;28;20019;-70
2022/05/06 04:16:12;;;;;;;;;;;8.30;99.90;;;;;;5053357;28;19928;-70
2022/05/06 04:18:41;;;;;;;;;;;8.30;99.90;;;;;;5053560;28;19925;-70
2022/05/06 04:23:54;;;;;;;;;;;8.30;99.90;;;;;;5053597;28;19921;-70
2022/05/06 04:26:20;;;;;;;;;;;8.30;99.90;;;;;;5053401;28;19924;-70
2022/05/06 04:28:54;;;;;;;;;;;8.30;99.90;;;;;;5052822;28;19933;-69
2022/05/06 04:31:22;;;;;;;;;;;8.30;99.90;;;;;;5053292;28;19963;-70
2022/05/06 04:33:53;;;;;;;;;;;8.30;99.90;;;;;;5053196;28;19928;-70
2022/05/06 04:36:28;;;;;;;;;;;8.30;99.90;;;;;;5052567;28;20016;-70
2022/05/06 04:38:59;;;;;;;;;;;8.40;99.90;;;;;;5053060;28;19929;-70
2022/05/06 04:41:29;;;;;;;;;;;8.40;99.90;;;;;;5053065;28;19930;-70
2022/05/06 04:43:57;;;;;;;;;;;8.40;99.90;;;;;;5052935;28;19924;-70
2022/05/06 04:46:27;;;;;;;;;;;8.50;99.90;;;;;;5053126;28;20392;-70
2022/05/06 04:48:57;;;;;;;;;;;8.50;99.90;;;;;;5052953;28;20020;-70
2022/05/06 04:51:24;;;;;;;;;;;8.50;99.90;;;;;;5053398;28;20018;-70
2022/05/06 04:53:54;;;;;;;;;;;8.50;99.90;;;;;;5052801;28;19924;-70
2022/05/06 04:56:22;;;;;;;;;;;8.60;99.90;;;;;;5053325;28;19931;-70
2022/05/06 04:58:50;;;;;;;;;;;8.60;99.90;;;;;;5053276;28;19987;-69
2022/05/06 05:01:25;;;;;;;;;;;8.60;99.90;;;;;;5051516;28;19931;-69
2022/05/06 05:03:52;;;;;;;;;;;8.70;99.90;;;;;;5050721;28;19932;-70
2022/05/06 05:06:21;;;;;;;;;;;8.70;99.90;;;;;;5052721;28;20015;-70
2022/05/06 05:08:50;;;;;;;;;;;8.70;99.90;;;;;;5052603;28;19929;-69
2022/05/06 05:11:17;;;;;;;;;;;8.80;99.90;;;;;;5053358;28;19924;-71
2022/05/06 05:13:51;;;;;;;;;;;8.90;99.90;;;;;;5052541;28;19939;-71
2022/05/06 05:16:29;;;;;;;;;;;9.00;99.90;;;;;;5057526;28;20024;-71
2022/05/06 05:18:56;;;;;;;;;;;9.10;99.90;;;;;;5069365;28;20023;-71
2022/05/06 05:21:25;;;;;;;;;;;9.10;99.90;;;;;;5053249;28;20605;-70
2022/05/06 05:23:52;;;;;;;;;;;9.30;99.90;;;;;;5053064;28;19924;-70
2022/05/06 05:26:19;;;;;;;;;;;9.30;99.90;;;;;;5054680;28;20289;-69
2022/05/06 05:28:48;;;;;;;;;;;9.40;99.90;;;;;;5059067;28;19936;-73
2022/05/06 05:31:15;;;;;;;;;;;9.50;99.90;;;;;;5056812;28;20303;-70
2022/05/06 05:33:42;;;;;;;;;;;9.60;99.90;;;;;;5050691;28;19924;-70
2022/05/06 05:36:09;;;;;;;;;;;9.60;99.90;;;;;;5045752;28;19924;-71
2022/05/06 05:38:38;;;;;;;;;;;9.70;99.90;;;;;;5048499;28;19924;-71
2022/05/06 05:41:05;;;;;;;;;;;9.80;99.90;;;;;;5057439;28;19970;-70
2022/05/06 05:49:06;;;;;;;;;;;10.00;99.90;;;;;;5073042;28;19963;-71
2022/05/06 05:51:33;;;;;;;;;;;10.10;99.90;;;;;;5073244;28;19931;-71
2022/05/06 05:54:04;;;;;;;;;;;10.20;99.90;;;;;;5072924;28;19929;-71
2022/05/06 05:56:33;;;;;;;;;;;10.30;99.90;;;;;;5072932;28;19925;-71
2022/05/06 05:59:01;;;;;;;;;;;10.30;99.90;;;;;;5072570;28;19935;-71
2022/05/06 06:01:29;;;;;;;;;;;10.40;99.90;;;;;;5072977;28;19960;-71
2022/05/06 06:03:58;;;;;;;;;;;10.50;99.90;;;;;;5072459;28;19967;-71
2022/05/06 06:06:25;;;;;;;;;;;10.60;99.90;;;;;;5072350;28;20000;-71
2022/05/06 06:08:54;;;;;;;;;;;10.70;99.90;;;;;;5070834;28;19974;-70
2022/05/06 06:11:22;;;;;;;;;;;10.80;99.90;;;;;;5062862;28;19925;-70
2022/05/06 06:13:51;;;;;;;;;;;10.80;99.90;;;;;;5057402;28;19967;-69
2022/05/06 06:16:22;;;;;;;;;;;10.90;99.90;;;;;;5073576;28;19978;-71
2022/05/06 06:18:50;;;;;;;;;;;10.90;99.90;;;;;;5071818;28;19970;-69
2022/05/06 06:21:19;;;;;;;;;;;11.00;99.90;;;;;;5073205;28;20408;-71
2022/05/06 06:23:48;;;;;;;;;;;11.10;99.90;;;;;;5055460;28;19925;-71
2022/05/06 06:26:15;;;;;;;;;;;11.00;99.90;;;;;;5055547;28;19978;-71
2022/05/06 06:28:43;;;;;;;;;;;11.00;99.90;;;;;;5055296;28;19925;-71
2022/05/06 06:31:13;;;;;;;;;;;11.00;99.90;;;;;;5055803;28;19925;-72
2022/05/06 06:33:41;;;;;;;;;;;11.10;99.90;;;;;;5055355;28;19928;-71
2022/05/06 06:36:13;;;;;;;;;;;11.20;99.90;;;;;;5055595;28;19930;-71
2022/05/06 06:38:42;;;;;;;;;;;11.20;99.90;;;;;;5055331;28;19928;-71
2022/05/06 06:41:09;;;;;;;;;;;11.30;99.90;;;;;;5055407;28;20026;-70
2022/05/06 06:43:36;;;;;;;;;;;11.30;99.90;;;;;;5055126;28;19935;-71
2022/05/06 06:46:17;;;;;;;;;;;11.40;99.90;;;;;;5055665;28;19990;-70
2022/05/06 06:49:10;;;;;;;;;;;11.50;99.90;;;;;;5055167;28;19931;-71
2022/05/06 06:51:52;;;;;;;;;;;11.50;99.90;;;;;;5055502;28;19931;-71
2022/05/06 06:54:19;;;;;;;;;;;11.60;99.90;;;;;;5055120;28;19924;-71
2022/05/06 06:56:45;;;;;;;;;;;11.80;99.90;;;;;;5055302;28;19932;-71
2022/05/06 06:59:12;;;;;;;;;;;11.90;99.90;;;;;;5053577;28;19932;-71
2022/05/06 07:01:41;;;;;;;;;;;12.00;99.90;;;;;;5055216;28;19925;-71
2022/05/06 07:04:07;;;;;;;;;;;12.10;99.90;;;;;;5054804;28;19925;-71
2022/05/06 07:12:03;;;;;;;;;;;12.30;99.90;;;;;;5054759;28;19928;-71
2022/05/06 07:14:35;;;;;;;;;;;12.20;99.90;;;;;;5054738;28;19934;-71
2022/05/06 07:17:05;;;;;;;;;;;12.30;99.90;;;;;;5054833;28;19925;-71
2022/05/06 07:19:32;;;;;;;;;;;12.20;99.90;;;;;;5054532;28;19924;-71
2022/05/06 07:21:59;;;;;;;;;;;12.20;99.90;;;;;;5054487;28;20388;-71
2022/05/06 07:24:25;;;;;;;;;;;12.10;99.90;;;;;;5054393;28;19931;-71
2022/05/06 07:26:53;;;;;;;;;;;12.20;99.90;;;;;;5054586;28;19924;-71
2022/05/06 07:29:20;;;;;;;;;;;12.30;99.90;;;;;;5053979;28;19981;-71
2022/05/06 07:31:47;;;;;;;;;;;12.50;99.90;;;;;;5054468;28;20345;-71
2022/05/06 07:34:16;;;;;;;;;;;12.50;99.90;;;;;;5054197;28;19924;-71
2022/05/06 07:36:42;;;;;;;;;;;12.60;99.90;;;;;;5054164;28;20007;-71
2022/05/06 07:39:10;;;;;;;;;;;12.70;99.90;;;;;;5053852;28;19928;-71
2022/05/06 07:41:37;;;;;;;;;;;12.60;99.90;;;;;;5054343;28;19933;-71
2022/05/06 07:44:04;;;;;;;;;;;12.70;99.90;;;;;;5053775;28;20342;-71
2022/05/06 07:46:30;;;;;;;;;;;12.80;99.90;;;;;;5054117;28;19925;-71
2022/05/06 07:48:57;;;;;;;;;;;12.70;99.90;;;;;;5053755;28;19970;-71
2022/05/06 07:51:25;;;;;;;;;;;12.80;99.90;;;;;;5054300;28;19924;-71
2022/05/06 07:53:52;;;;;;;;;;;12.90;99.90;;;;;;5054178;28;19973;-70
2022/05/06 07:56:19;;;;;;;;;;;12.90;99.90;;;;;;5057109;28;19925;-71
2022/05/06 07:58:47;;;;;;;;;;;12.80;99.90;;;;;;5056304;28;19931;-70
2022/05/06 08:01:13;;;;;;;;;;;12.80;99.90;;;;;;5062502;28;19932;-70
2022/05/06 08:06:26;;;;;;;;;;;12.90;99.90;;;;;;5057758;28;19924;-71
2022/05/06 08:08:53;;;;;;;;;;;12.80;99.90;;;;;;5070113;28;19935;-70
2022/05/06 08:11:20;;;;;;;;;;;13.00;99.90;;;;;;5063460;28;19924;-71
2022/05/06 08:13:49;;;;;;;;;;;13.00;99.90;;;;;;5053429;28;19924;-71
2022/05/06 08:16:15;;;;;;;;;;;13.00;99.90;;;;;;5053602;28;20532;-71
2022/05/06 08:18:42;;;;;;;;;;;13.00;99.90;;;;;;5053873;28;19972;-71
2022/05/06 08:21:09;;;;;;;;;;;13.10;99.90;;;;;;5053857;28;19974;-68
2022/05/06 08:23:37;;;;;;;;;;;13.00;99.90;;;;;;5054161;28;20094;-68
2022/05/06 08:26:05;;;;;;;;;;;13.00;99.90;;;;;;5054021;28;20305;-68
2022/05/06 08:28:32;;;;;;;;;;;13.00;99.90;;;;;;5049727;28;20019;-68
2022/05/06 08:30:59;;;;;;;;;;;13.10;99.90;;;;;;5062743;28;19928;-68
2022/05/06 08:33:26;;;;;;;;;;;13.10;99.90;;;;;;5075003;28;20022;-70
2022/05/06 08:35:53;;;;;;;;;;;13.10;99.90;;;;;;5070358;28;19924;-72
2022/05/06 08:38:21;;;;;;;;;;;13.20;99.90;;;;;;5070382;28;19932;-69
2022/05/06 08:40:50;;;;;;;;;;;13.40;99.90;;;;;;5069865;28;20380;-70
2022/05/06 08:43:17;;;;;;;;;;;13.40;99.90;;;;;;5070290;28;19925;-69
2022/05/06 08:51:13;;;;;;;;;;;13.70;99.90;;;;;;5071054;28;19920;-71
2022/05/06 08:53:40;;;;;;;;;;;13.80;99.90;;;;;;5066558;28;19925;-68
2022/05/06 08:56:08;;;;;;;;;;;14.00;99.90;;;;;;5058000;28;19932;-69
2022/05/06 08:58:37;;;;;;;;;;;14.10;99.90;;;;;;5057614;28;19974;-68
2022/05/06 09:01:05;;;;;;;;;;;14.30;99.90;;;;;;5057562;28;19924;-68
2022/05/06 09:03:32;;;;;;;;;;;14.40;99.90;;;;;;5055281;28;19925;-68
2022/05/06 09:05:59;;;;;;;;;;;14.50;99.90;;;;;;5058040;28;19978;-68
2022/05/06 09:08:35;;;;;;;;;;;14.60;99.90;;;;;;5057285;28;19964;-70
2022/05/06 09:11:04;;;;;;;;;;;14.80;99.90;;;;;;5052087;28;19925;-71
2022/05/06 09:13:33;;;;;;;;;;;14.90;99.90;;;;;;5057046;28;19925;-70
2022/05/06 09:19:09;;;;;;;;;;;15.10;99.90;;;;;;5055826;28;19921;-70
2022/05/06 09:21:36;;;;;;;;;;;15.20;99.90;;;;;;5056798;28;19931;-70
2022/05/06 09:24:15;;;;;;;;;;;15.30;99.90;;;;;;5070589;28;19931;-69
2022/05/06 09:26:55;;;;;;;;;;;15.40;99.90;;;;;;5064640;28;19925;-70
2022/05/06 09:29:28;;;;;;;;;;;15.50;99.90;;;;;;5056476;28;19977;-70
2022/05/06 09:31:56;;;;;;;;;;;15.60;99.90;;;;;;5053883;28;19986;-70
2022/05/06 09:34:28;;;;;;;;;;;15.70;99.90;;;;;;5054990;28;20396;-70
2022/05/06 09:36:54;;;;;;;;;;;15.70;99.90;;;;;;5062481;28;19931;-70
2022/05/06 09:39:21;;;;;;;;;;;15.80;99.90;;;;;;5050501;28;20379;-71
2022/05/06 09:41:48;;;;;;;;;;;16.00;99.90;;;;;;5063209;28;19974;-71
2022/05/06 09:44:22;;;;;;;;;;;16.00;99.90;;;;;;5060845;28;20019;-71
2022/05/06 09:47:07;;;;;;;;;;;16.20;99.90;;;;;;5059808;28;19925;-70
2022/05/06 09:49:38;;;;;;;;;;;16.30;99.90;;;;;;5063604;28;19925;-70
2022/05/06 09:52:08;;;;;;;;;;;16.40;99.90;;;;;;5061796;28;19932;-71
2022/05/06 09:54:36;;;;;;;;;;;16.50;99.90;;;;;;5060157;28;19978;-71
2022/05/06 09:57:03;;;;;;;;;;;16.70;99.90;;;;;;5057757;28;19983;-71
2022/05/06 09:59:31;;;;;;;;;;;16.80;99.90;;;;;;5049679;28;19974;-71
2022/05/06 10:01:59;;;;;;;;;;;16.90;99.90;;;;;;5055548;28;19974;-70
2022/05/06 10:04:26;;;;;;;;;;;17.00;99.90;;;;;;5055681;28;19925;-71
2022/05/06 10:06:53;;;;;;;;;;;17.10;99.90;;;;;;5058924;28;19924;-70
2022/05/06 10:09:21;;;;;;;;;;;17.30;99.90;;;;;;5063116;28;20338;-71
2022/05/06 10:11:48;;;;;;;;;;;17.40;99.90;;;;;;5056663;28;19932;-70
2022/05/06 10:14:15;;;;;;;;;;;17.40;99.90;;;;;;5055665;28;19924;-71
2022/05/06 10:16:42;;;;;;;;;;;17.60;99.90;;;;;;5056147;28;20392;-71
2022/05/06 10:19:24;;;;;;;;;;;17.70;99.90;;;;;;5055647;28;20311;-71
2022/05/06 10:21:51;;;;;;;;;;;17.80;99.90;;;;;;5055943;28;19924;-71
2022/05/06 10:24:20;;;;;;;;;;;17.90;99.90;;;;;;5055313;28;19928;-70
2022/05/06 10:26:47;;;;;;;;;;;18.00;99.90;;;;;;5055434;28;19924;-70
2022/05/06 10:32:55;;;;;;;;;;;18.30;99.90;;;;;;5055503;28;19949;-71
2022/05/06 10:35:39;;;;;;;;;;;18.40;99.90;;;;;;4974847;28;19930;-70
2022/05/06 10:38:15;;;;;;;;;;;18.60;99.90;;;;;;4975298;28;19926;-71
2022/05/06 10:40:49;;;;;;;;;;;18.70;99.90;;;;;;5023861;28;19924;-71
2022/05/06 10:43:31;;;;;;;;;;;18.80;99.90;;;;;;5055390;28;19939;-71
2022/05/06 10:45:57;;;;;;;;;;;19.00;99.90;;;;;;5055001;28;19928;-71
2022/05/06 10:48:24;;;;;;;;;;;19.20;99.90;;;;;;5055035;28;19924;-71
2022/05/06 10:50:52;;;;;;;;;;;19.30;99.90;;;;;;5054672;28;19925;-70
2022/05/06 10:53:35;;;;;;;;;;;19.30;99.90;;;;;;5054892;28;19947;-70
2022/05/06 10:56:02;;;;;;;;;;;19.20;99.90;;;;;;5054744;28;19991;-71
2022/05/06 10:58:28;;;;;;;;;;;19.20;99.90;;;;;;5055078;28;19990;-71
2022/05/06 11:00:59;;;;;;;;;;;19.30;99.90;;;;;;5054952;28;20346;-70
2022/05/06 11:03:26;;;;;;;;;;;19.40;99.90;;;;;;5054763;28;19946;-70
2022/05/06 11:05:55;;;;;;;;;;;19.70;99.90;;;;;;5054663;28;20299;-71
2022/05/06 11:08:32;;;;;;;;;;;19.90;99.90;;;;;;5054597;28;19925;-71
2022/05/06 11:10:59;;;;;;;;;;;20.00;99.90;;;;;;5054605;28;19978;-71
2022/05/06 11:13:26;;;;;;;;;;;20.00;99.90;;;;;;5054602;28;19925;-71
2022/05/06 11:15:55;;;;;;;;;;;19.90;99.90;;;;;;5054567;28;19929;-71
2022/05/06 11:18:22;;;;;;;;;;;20.10;99.90;;;;;;5054747;28;20020;-69
2022/05/06 11:20:48;;;;;;;;;;;20.30;99.90;;;;;;5054395;28;19974;-70
2022/05/06 11:23:18;;;;;;;;;;;20.60;99.90;;;;;;5054358;28;20473;-71
2022/05/06 11:25:46;;;;;;;;;;;20.80;99.90;;;;;;5053215;28;20023;-71
2022/05/06 11:28:13;;;;;;;;;;;21.00;99.90;;;;;;5063138;28;19924;-71
2022/05/06 11:30:43;;;;;;;;;;;21.00;99.90;;;;;;5054186;28;19947;-71
2022/05/06 11:33:19;;;;;;;;;;;21.10;99.90;;;;;;5054645;28;19929;-71
2022/05/06 11:35:47;;;;;;;;;;;21.30;99.90;;;;;;5054106;28;19932;-71
2022/05/06 11:38:13;;;;;;;;;;;21.70;99.90;;;;;;5054645;28;19929;-71
2022/05/06 11:40:42;;;;;;;;;;;22.10;99.90;;;;;;5053955;28;19924;-71
2022/05/06 11:43:19;;;;;;;;;;;24.30;99.90;;;;;;5055908;28;20005;-72
2022/05/06 11:48:32;;;;;;;;;;;31.70;99.90;;;;;;5058767;28;20295;-71
2022/05/06 11:51:00;;;;;;;;;;;34.50;99.90;;;;;;5058973;28;20411;-69
2022/05/06 11:53:27;;;;;;;;;;;36.00;99.90;;;;;;5054691;28;19924;-70
2022/05/06 11:55:56;;;;;;;;;;;36.90;99.90;;;;;;5054910;28;19963;-70
2022/05/06 11:58:24;;;;;;;;;;;38.30;99.90;;;;;;5053919;28;20475;-69
2022/05/06 12:00:51;;;;;;;;;;;38.60;99.90;;;;;;5054038;28;19928;-70
2022/05/06 12:03:18;;;;;;;;;;;39.10;99.90;;;;;;5052657;28;20295;-70
2022/05/06 12:05:58;;;;;;;;;;;38.60;99.90;;;;;;5052229;28;19955;-72
2022/05/06 12:08:26;;;;;;;;;;;38.90;99.90;;;;;;5052233;28;20279;-71
2022/05/06 12:11:00;;;;;;;;;;;34.80;99.90;;;;;;5052298;28;19928;-71
2022/05/06 12:13:31;;;;;;;;;;;31.90;99.90;;;;;;5052683;28;19928;-69
2022/05/06 12:16:04;;;;;;;;;;;33.30;99.90;;;;;;5053511;28;20399;-71
2022/05/06 12:18:31;;;;;;;;;;;36.10;99.90;;;;;;5053595;28;19970;-71
2022/05/06 12:20:58;;;;;;;;;;;38.80;99.90;;;;;;5060692;28;19975;-71
2022/05/06 12:23:27;;;;;;;;;;;39.10;99.90;;;;;;5069910;28;19948;-71
2022/05/06 12:25:56;;;;;;;;;;;40.90;99.90;;;;;;5054309;28;22293;-71
2022/05/06 12:28:27;;;;;;;;;;;40.90;99.90;;;;;;5071068;28;19924;-71
2022/05/06 12:30:57;;;;;;;;;;;41.10;99.90;;;;;;5069693;28;19954;-71
2022/05/06 12:33:35;;;;;;;;;;;41.20;99.90;;;;;;5061081;28;19924;-72
2022/05/06 12:36:02;;;;;;;;;;;41.60;99.90;;;;;;5054707;28;19924;-71
2022/05/06 12:38:44;;;;;;;;;;;42.30;99.70;;;;;;5070897;28;19929;-71
2022/05/06 12:41:16;;;;;;;;;;;42.40;99.00;;;;;;5070690;28;19924;-71
2022/05/06 12:43:44;;;;;;;;;;;41.70;98.90;;;;;;5070635;28;19932;-70
2022/05/06 12:46:11;;;;;;;;;;;37.60;99.50;;;;;;5070589;28;19968;-71
2022/05/06 12:51:22;;;;;;;;;;;37.90;98.80;;;;;;5069981;28;20392;-72
2022/05/06 12:53:49;;;;;;;;;;;39.30;96.70;;;;;;5054817;28;20142;-77
2022/05/06 12:56:18;;;;;;;;;;;38.90;97.70;;;;;;5057001;28;20420;-72
2022/05/06 12:58:46;;;;;;;;;;;37.60;96.00;;;;;;5057017;28;20376;-71
2022/05/06 13:01:13;;;;;;;;;;;36.80;96.50;;;;;;5060905;28;19929;-71
2022/05/06 13:03:40;;;;;;;;;;;37.50;96.10;;;;;;5062480;28;19928;-70
2022/05/06 13:06:07;;;;;;;;;;;38.40;97.80;;;;;;5060093;28;19960;-72
2022/05/06 13:08:34;;;;;;;;;;;38.50;95.30;;;;;;5062112;28;19924;-72
2022/05/06 13:11:00;;;;;;;;;;;37.50;98.20;;;;;;5052989;28;20030;-72
2022/05/06 13:13:27;;;;;;;;;;;38.00;96.00;;;;;;5052837;28;20387;-71
2022/05/06 13:15:56;;;;;;;;;;;38.70;95.30;;;;;;5053152;28;20392;-72
2022/05/06 13:18:23;;;;;;;;;;;39.50;96.40;;;;;;5052902;28;19924;-71
2022/05/06 13:20:49;;;;;;;;;;;39.60;94.80;;;;;;5052636;28;20417;-72
2022/05/06 13:23:16;;;;;;;;;;;39.50;95.00;;;;;;5053022;28;19928;-71
2022/05/06 13:25:44;;;;;;;;;;;39.60;96.60;;;;;;5052608;28;19951;-72
2022/05/06 13:28:11;;;;;;;;;;;40.10;96.30;;;;;;5052514;28;19924;-72
2022/05/06 13:30:38;;;;;;;;;;;40.30;94.10;;;;;;5052448;28;19987;-71
2022/05/06 13:33:06;;;;;;;;;;;40.10;96.10;;;;;;5052901;28;19978;-71
2022/05/06 13:35:33;;;;;;;;;;;39.70;94.10;;;;;;5056410;28;20338;-73
2022/05/06 13:38:00;;;;;;;;;;;39.00;92.70;;;;;;5065797;28;19924;-71
2022/05/06 13:40:27;;;;;;;;;;;38.40;94.40;;;;;;5068855;28;19925;-72
2022/05/06 13:42:54;;;;;;;;;;;37.90;95.50;;;;;;5069861;28;19946;-69
2022/05/06 13:45:20;;;;;;;;;;;38.10;96.40;;;;;;5069174;28;20358;-72
2022/05/06 13:47:47;;;;;;;;;;;37.90;95.20;;;;;;5069578;28;19928;-72
2022/05/06 13:50:15;;;;;;;;;;;38.40;94.30;;;;;;5069242;28;19924;-72
2022/05/06 13:52:42;;;;;;;;;;;38.20;92.60;;;;;;5069451;28;20453;-72
2022/05/06 13:55:09;;;;;;;;;;;;;;;;;;5068976;28;19978;-71
2022/05/06 14:00:21;;;;;;;;;;;36.70;93.80;;;;;;5069070;28;19930;-71
2022/05/06 14:02:48;;;;;;;;;;;36.00;96.50;;;;;;5066528;28;19971;-72
2022/05/06 14:05:16;;;;;;;;;;;35.60;95.50;;;;;;5060562;28;20396;-70
2022/05/06 14:07:43;;;;;;;;;;;35.90;96.00;;;;;;5052750;28;19978;-72
2022/05/06 14:10:10;;;;;;;;;;;36.20;94.20;;;;;;5053555;28;19931;-71
2022/05/06 14:12:37;;;;;;;;;;;35.80;92.90;;;;;;5071857;28;20319;-72
2022/05/06 14:15:04;;;;;;;;;;;34.50;94.00;;;;;;5054048;28;20047;-71
2022/05/06 14:17:30;;;;;;;;;;;33.80;92.70;;;;;;5054883;28;19936;-71
2022/05/06 14:19:57;;;;;;;;;;;33.40;94.20;;;;;;5053906;28;19939;-72
2022/05/06 14:22:25;;;;;;;;;;;33.30;96.40;;;;;;5054094;28;20035;-72
2022/05/06 14:24:52;;;;;;;;;;;33.70;93.90;;;;;;5073255;28;19986;-72
2022/05/06 14:27:18;;;;;;;;;;;34.10;96.40;;;;;;5073956;28;19924;-71
2022/05/06 14:29:45;;;;;;;;;;;34.20;96.50;;;;;;5069233;28;20352;-71
2022/05/06 14:32:12;;;;;;;;;;;34.20;94.60;;;;;;5064190;28;20386;-71
2022/05/06 14:34:38;;;;;;;;;;;34.60;95.10;;;;;;5073509;28;20011;-71
2022/05/06 14:37:06;;;;;;;;;;;34.30;93.40;;;;;;5072477;28;20451;-71
2022/05/06 14:39:34;;;;;;;;;;;33.30;94.90;;;;;;5071774;28;20397;-71
2022/05/06 14:42:00;;;;;;;;;;;33.10;94.70;;;;;;5072307;28;20024;-71
2022/05/06 14:44:27;;;;;;;;;;;32.80;95.00;;;;;;5071781;28;19924;-72
2022/05/06 14:46:53;;;;;;;;;;;32.80;96.80;;;;;;5071972;28;20400;-73
2022/05/06 14:49:22;;;;;;;;;;;33.00;95.60;;;;;;5071899;28;19925;-72
2022/05/06 14:51:49;;;;;;;;;;;32.20;95.20;;;;;;5072292;28;19924;-72
2022/05/06 14:54:15;;;;;;;;;;;31.00;93.90;;;;;;5071930;28;19970;-72
2022/05/06 14:56:44;;;;;;;;;;;30.30;95.40;;;;;;5071974;28;19928;-73
2022/05/06 14:59:10;;;;;;;;;;;29.80;94.40;;;;;;5071337;28;19935;-71
2022/05/06 15:01:37;;;;;;;;;;;29.70;94.10;;;;;;5071660;28;19924;-72
2022/05/06 15:04:04;;;;;;;;;;;29.70;95.30;;;;;;5071404;28;19924;-72
2022/05/06 15:06:31;;;;;;;;;;;30.20;95.10;;;;;;5071819;28;19928;-72
2022/05/06 15:08:58;;;;;;;;;;;30.50;93.90;;;;;;5071254;28;19970;-72
2022/05/06 15:11:26;;;;;;;;;;;30.60;94.80;;;;;;5064389;28;19924;-73
2022/05/06 15:13:54;;;;;;;;;;;30.90;94.90;;;;;;5054419;28;20303;-72